Detalii statie VESTAGRAR MARGHITA [00001D0E]

Toti senzorii

Date Temperatura solului [C]Precipitatii [mm]Voltaj baterie [mV]Leaf Wetness [Min]HC Air temperature [C]HC Relative humidity [%]Punctul de roua [C]
medieminmaxsumaultimatimpmedieminmaxmediemediemin
2020-05-26 00:00:00 0 6914 8.29 7.83 8.74 0 0 0
2020-05-26 01:00:00 0 6884 7.81 7.4 8.85 0 0 0
2020-05-26 02:00:00 0 6894 7.64 6.51 8.86 0 0 0
2020-05-26 03:00:00 0 6874 6.86 6.25 7.63 0 0 0
2020-05-26 04:00:00 0 6864 5.72 5.47 6.2 0 0 0
2020-05-26 05:00:00 0 6864 5.8 5.51 6.2 0 0 0
2020-05-26 06:00:00 0 6854 6.13 5.52 6.63 0 0 0
2020-05-26 07:00:00 0 6874 7.12 6.6 7.41 0 0 0
2020-05-26 08:00:00 0 6962 8.06 6.88 8.79 0 0 0
2020-05-26 09:00:00 0 7088 10.05 8.99 11.29 0 0 0
2020-05-26 10:00:00 0 7264 13.87 10.95 16.56 0 0 0
2020-05-26 11:00:00 0 7314 15.86 14.22 17.4 0 0 0
2020-05-26 12:00:00 0 7304 17.5 16.36 18.71 0 0 0
2020-05-26 13:00:00 0 7294 18.72 17.44 19.73 0 0 0
2020-05-26 14:00:00 0 7304 19.47 18.51 20.52 0 0 0
2020-05-26 15:00:00 0 7314 19.77 17.71 20.93 0 0 0
2020-05-26 16:00:00 0 7304 19.71 18.8 20.77 0 0 0
2020-05-26 17:00:00 0 7294 19.33 17.05 21.79 0 0 0
2020-05-26 18:00:00 0 7294 17.15 14.91 19.6 0 0 0
2020-05-26 19:00:00 0 7294 16.25 15.45 17.08 0 0 0
2020-05-26 20:00:00 0 7294 17.07 16.87 17.24 0 0 0
2020-05-26 21:00:00 0 6972 15.52 14.08 16.78 0 0 0
2020-05-26 22:00:00 0 6952 12.54 11.95 13.77 0 0 0
2020-05-26 23:00:00 0 6942 11.47 11.25 12.15 0 0 0
2020-05-27 00:00:00 0 6922 11.26 11.04 11.48 0 0 0
2020-05-27 01:00:00 0 6904 10.69 10.55 10.94 0 0 0
2020-05-27 02:00:00 0 6904 10.08 9.56 10.72 0 0 0
2020-05-27 03:00:00 0 6894 9.66 9.09 10.09 0 0 0
2020-05-27 04:00:00 0 6884 8.37 7.95 9.03 0 0 0
2020-05-27 05:00:00 0 6874 7.8 7.49 8.08 0 0 0
2020-05-27 06:00:00 0 6864 7.28 7.17 7.43 0 0 0
2020-05-27 07:00:00 0 6874 7.6 6.98 8.34 0 0 0
2020-05-27 08:00:00 0 6952 9.52 8.69 10.25 0 0 0
2020-05-27 09:00:00 0 7088 12.74 10.77 15.19 0 0 0
2020-05-27 10:00:00 0 7254 15.93 14.36 17.15 0 0 0
2020-05-27 11:00:00 0 7304 17.56 17.07 18.14 0 0 0
2020-05-27 12:00:00 0 7304 18.5 17.54 19.23 0 0 0
2020-05-27 13:00:00 0 7314 19.81 18.92 21.08 0 0 0
2020-05-27 14:00:00 0 7304 19.93 19.2 20.85 0 0 0
2020-05-27 15:00:00 0.2 7294 19.31 16.91 21.02 0 0 0
2020-05-27 16:00:00 0 7294 19.71 16.81 21.01 0 0 0
2020-05-27 17:00:00 0 7294 20.31 19.17 22.28 0 0 0
2020-05-27 18:00:00 0.2 7294 15.63 13.25 19.43 0 0 0
2020-05-27 19:00:00 0 7294 15.48 13.46 16.37 0 0 0
2020-05-27 20:00:00 0 7294 15.34 13.82 16.49 0 0 0
2020-05-27 21:00:00 0 6972 12.81 12.39 13.59 0 0 0
2020-05-27 22:00:00 0 6942 11.78 11.31 12.7 0 0 0
2020-05-27 23:00:00 0 6932 11.43 10.8 12.17 0 0 0